Time;durP1;ratioP1;P1;durP2;ratioP2;P2;SDS_P1;SDS_P2;PMS_P1;PMS_P2;Temp;Humidity;BMP_temperature;BMP_pressure;BME280_temperature;BME280_humidity;BME280_pressure;Samples;Min_cycle;Max_cycle;Signal;HPM_P1;HPM_P2
2021/12/10 00:00:08;;;;;;;8.67;5.10;;;2.80;99.90;;;;;;5052760;28;20457;-49
2021/12/10 00:02:35;;;;;;;4.97;4.20;;;2.80;99.90;;;;;;5053520;28;20202;-48
2021/12/10 00:05:03;;;;;;;8.67;4.20;;;2.80;99.90;;;;;;5053555;28;20994;-48
2021/12/10 00:07:29;;;;;;;9.73;4.70;;;2.80;99.90;;;;;;5053780;28;20241;-46
2021/12/10 00:09:59;;;;;;;6.10;4.13;;;2.80;99.90;;;;;;5053825;28;20625;-48
2021/12/10 00:12:29;;;;;;;6.33;3.50;;;2.80;99.90;;;;;;5053675;28;20290;-49
2021/12/10 00:14:56;;;;;;;7.70;4.00;;;2.80;99.90;;;;;;5053606;28;20451;-46
2021/12/10 00:17:22;;;;;;;7.83;3.93;;;2.80;99.90;;;;;;5053724;28;20180;-47
2021/12/10 00:19:53;;;;;;;8.07;3.63;;;2.80;99.90;;;;;;5035647;28;20231;-46
2021/12/10 00:22:21;;;;;;;5.40;3.37;;;2.70;99.90;;;;;;5053205;28;20680;-45
2021/12/10 00:24:50;;;;;;;6.67;3.80;;;2.60;99.90;;;;;;5053263;28;20198;-48
2021/12/10 00:27:26;;;;;;;6.33;3.50;;;2.60;99.90;;;;;;5053485;28;20184;-46
2021/12/10 00:29:53;;;;;;;6.10;3.80;;;2.60;99.90;;;;;;5053546;28;20181;-47
2021/12/10 00:32:30;;;;;;;9.57;4.40;;;2.50;99.90;;;;;;5053331;28;20225;-47
2021/12/10 00:34:58;;;;;;;7.17;4.03;;;2.50;99.90;;;;;;5053100;28;20181;-47
2021/12/10 00:37:26;;;;;;;11.30;4.50;;;2.40;99.90;;;;;;5035210;28;20187;-46
2021/12/10 00:39:56;;;;;;;6.70;4.40;;;2.30;99.90;;;;;;5053300;28;20288;-47
2021/12/10 00:42:26;;;;;;;9.93;4.53;;;2.30;99.90;;;;;;5053007;28;20440;-47
2021/12/10 00:44:53;;;;;;;7.33;4.77;;;2.20;99.90;;;;;;5053474;28;20687;-47
2021/12/10 00:47:18;;;;;;;8.50;5.23;;;2.10;99.90;;;;;;5052946;28;20414;-48
2021/12/10 00:49:44;;;;;;;9.00;5.50;;;2.10;99.90;;;;;;5052962;28;20187;-49
2021/12/10 00:52:13;;;;;;;8.00;5.27;;;2.10;99.90;;;;;;5053015;28;20745;-48
2021/12/10 00:54:40;;;;;;;8.20;5.27;;;2.00;99.90;;;;;;5052924;28;20175;-47
2021/12/10 00:57:08;;;;;;;6.10;4.17;;;2.00;99.90;;;;;;5052939;28;20586;-47
2021/12/10 00:59:36;;;;;;;8.23;4.17;;;2.00;99.90;;;;;;5053019;28;20472;-48
2021/12/10 01:02:02;;;;;;;4.73;3.70;;;1.90;99.90;;;;;;5052785;28;20207;-47
2021/12/10 01:04:34;;;;;;;4.57;3.17;;;1.90;99.90;;;;;;5052846;28;20913;-45
2021/12/10 01:07:04;;;;;;;6.17;3.10;;;1.90;99.90;;;;;;5052857;28;20172;-47
2021/12/10 01:09:34;;;;;;;8.27;3.77;;;1.90;99.90;;;;;;5052728;28;20413;-46
2021/12/10 01:12:09;;;;;;;7.07;4.03;;;1.90;99.90;;;;;;5055665;28;20437;-48
2021/12/10 01:26:08;;;;;;;7.83;2.70;;;1.90;99.90;;;;;;5056874;28;20905;-47
2021/12/10 01:28:36;;;;;;;3.97;2.50;;;1.90;99.90;;;;;;5056853;28;20166;-49
2021/12/10 01:31:01;;;;;;;7.60;3.00;;;2.00;99.90;;;;;;5056425;28;20170;-45
2021/12/10 01:33:27;;;;;;;10.07;2.90;;;2.00;99.90;;;;;;5056722;28;20835;-46
2021/12/10 01:35:56;;;;;;;5.33;2.60;;;2.00;99.90;;;;;;5056917;28;20205;-45
2021/12/10 01:38:22;;;;;;;7.17;2.90;;;2.10;99.90;;;;;;5056504;28;20432;-48
2021/12/10 01:40:54;;;;;;;6.97;3.63;;;2.00;99.90;;;;;;5056141;28;20443;-48
2021/12/10 01:43:23;;;;;;;14.00;3.43;;;2.00;99.90;;;;;;5056260;28;20953;-48
2021/12/10 01:45:53;;;;;;;6.17;2.77;;;2.10;99.90;;;;;;5056368;28;20420;-49
2021/12/10 01:48:26;;;;;;;4.23;2.43;;;2.00;99.90;;;;;;5056484;28;20185;-47
2021/12/10 01:50:53;;;;;;;5.37;2.60;;;2.00;99.90;;;;;;5056383;28;20734;-46
2021/12/10 01:53:23;;;;;;;4.40;2.33;;;2.10;99.90;;;;;;5056127;28;20232;-48
2021/12/10 01:55:53;;;;;;;8.50;2.40;;;2.10;99.90;;;;;;5056040;28;20531;-47
2021/12/10 01:58:21;;;;;;;8.63;2.87;;;2.10;99.90;;;;;;5055888;28;20408;-48
2021/12/10 02:00:56;;;;;;;4.87;2.63;;;2.10;99.90;;;;;;5055840;28;20417;-48
2021/12/10 02:03:22;;;;;;;5.23;2.50;;;2.10;99.90;;;;;;5056295;28;20397;-51
2021/12/10 02:05:47;;;;;;;8.77;2.60;;;2.20;99.90;;;;;;5055613;28;20774;-47
2021/12/10 02:08:13;;;;;;;5.03;2.17;;;2.20;99.90;;;;;;5056010;28;20436;-47
2021/12/10 02:10:39;;;;;;;5.93;2.37;;;2.30;99.90;;;;;;5056118;28;20219;-46
2021/12/10 02:13:05;;;;;;;10.80;2.50;;;2.30;99.90;;;;;;5055630;28;20199;-44
2021/12/10 02:15:31;;;;;;;8.07;2.63;;;2.30;99.90;;;;;;5056000;28;20429;-46
2021/12/10 02:17:59;;;;;;;7.30;2.57;;;2.30;99.90;;;;;;5055918;28;20186;-47
2021/12/10 02:20:32;;;;;;;9.67;2.53;;;2.30;99.90;;;;;;5055410;28;20235;-47
2021/12/10 02:23:00;;;;;;;3.33;1.27;;;2.20;99.90;;;;;;5054832;28;20434;-47
2021/12/10 02:25:29;;;;;;;3.47;1.67;;;2.30;99.90;;;;;;5055704;28;20179;-48
2021/12/10 02:27:56;;;;;;;8.63;2.40;;;2.30;99.90;;;;;;5055389;28;20507;-47
2021/12/10 02:30:25;;;;;;;11.73;3.33;;;2.30;99.90;;;;;;5055346;28;20466;-48
2021/12/10 02:32:51;;;;;;;5.93;2.53;;;2.30;99.90;;;;;;5055504;28;20532;-48
2021/12/10 02:35:18;;;;;;;2.67;1.60;;;2.30;99.90;;;;;;5055280;28;20889;-48
2021/12/10 02:37:45;;;;;;;9.10;3.03;;;2.30;99.90;;;;;;5055258;28;20186;-47
2021/12/10 02:40:14;;;;;;;4.37;2.30;;;2.30;99.90;;;;;;5055125;28;20833;-48
2021/12/10 02:42:40;;;;;;;7.83;2.60;;;2.30;99.90;;;;;;5055103;28;20287;-45
2021/12/10 02:45:07;;;;;;;5.70;1.70;;;2.30;99.90;;;;;;5055128;28;20514;-46
2021/12/10 02:47:33;;;;;;;2.13;1.17;;;2.30;99.90;;;;;;5055380;28;20189;-46
2021/12/10 02:49:59;;;;;;;4.50;1.87;;;2.30;99.90;;;;;;5055040;28;20426;-46
2021/12/10 02:52:27;;;;;;;8.90;2.03;;;2.30;99.90;;;;;;5054951;28;20641;-48
2021/12/10 02:54:53;;;;;;;11.30;1.80;;;2.40;99.90;;;;;;5055172;28;20428;-48
2021/12/10 02:57:20;;;;;;;7.17;2.00;;;2.40;99.90;;;;;;5055652;28;20424;-46
2021/12/10 02:59:46;;;;;;;4.70;0.93;;;2.40;99.90;;;;;;5054750;28;20467;-47
2021/12/10 03:02:16;;;;;;;5.93;1.70;;;2.40;99.90;;;;;;5054765;28;20289;-47
2021/12/10 03:04:43;;;;;;;9.93;2.63;;;2.40;99.90;;;;;;5055028;28;20485;-46
2021/12/10 03:07:14;;;;;;;8.07;1.73;;;2.40;99.90;;;;;;5054919;28;20427;-48
2021/12/10 03:09:43;;;;;;;3.13;1.30;;;2.40;99.90;;;;;;5055265;28;20433;-49
2021/12/10 03:12:10;;;;;;;2.07;0.80;;;2.40;99.90;;;;;;5054790;28;20456;-45
2021/12/10 03:14:39;;;;;;;3.37;1.60;;;2.40;99.90;;;;;;5054468;28;20417;-45
2021/12/10 03:17:09;;;;;;;9.47;2.10;;;2.40;99.90;;;;;;5054443;28;20425;-47
2021/12/10 03:19:35;;;;;;;5.07;1.03;;;2.50;99.90;;;;;;5054494;28;20481;-48
2021/12/10 03:22:01;;;;;;;4.77;1.70;;;2.40;99.90;;;;;;5054315;28;20471;-46
2021/12/10 03:24:28;;;;;;;7.03;2.03;;;2.50;99.90;;;;;;5054549;28;20193;-48
2021/12/10 03:26:57;;;;;;;5.70;1.37;;;2.40;99.90;;;;;;5054308;28;20658;-47
2021/12/10 03:29:27;;;;;;;5.90;1.60;;;2.40;99.90;;;;;;5036440;28;20433;-48
2021/12/10 03:31:55;;;;;;;2.33;1.10;;;2.40;99.90;;;;;;5054458;28;20432;-47
2021/12/10 03:34:21;;;;;;;8.13;1.83;;;2.50;99.90;;;;;;5054041;28;20445;-46
2021/12/10 03:36:51;;;;;;;2.97;1.50;;;2.50;99.90;;;;;;5054158;28;20454;-45
2021/12/10 03:39:22;;;;;;;7.47;1.37;;;2.50;99.90;;;;;;5054222;28;20468;-47
2021/12/10 03:41:48;;;;;;;16.07;2.57;;;2.50;99.90;;;;;;5054274;28;20202;-47
2021/12/10 03:44:14;;;;;;;6.97;1.30;;;2.50;99.90;;;;;;5054297;28;20428;-47
2021/12/10 03:46:41;;;;;;;5.07;1.33;;;2.50;99.90;;;;;;5053914;28;20436;-46
2021/12/10 03:49:07;;;;;;;4.43;1.17;;;2.50;99.90;;;;;;5053840;28;20443;-47
2021/12/10 03:51:34;;;;;;;8.53;1.73;;;2.60;99.90;;;;;;5053952;28;20852;-46
2021/12/10 03:54:01;;;;;;;8.63;1.60;;;2.50;99.90;;;;;;5053843;28;20202;-46
2021/12/10 03:56:28;;;;;;;6.23;1.50;;;2.50;99.90;;;;;;5053730;28;20471;-48
2021/12/10 03:58:56;;;;;;;9.33;1.50;;;2.60;99.90;;;;;;5053654;28;20461;-47
2021/12/10 04:01:26;;;;;;;4.13;1.33;;;2.50;99.90;;;;;;5053692;28;20517;-48
2021/12/10 04:03:54;;;;;;;8.20;1.77;;;2.60;99.90;;;;;;5053941;28;20504;-47
2021/12/10 04:06:22;;;;;;;4.03;1.17;;;2.60;99.90;;;;;;5053966;28;20482;-46
2021/12/10 04:08:48;;;;;;;2.93;1.37;;;2.60;99.90;;;;;;5054036;28;20436;-47
2021/12/10 04:11:16;;;;;;;2.50;1.13;;;2.60;99.90;;;;;;5035643;28;20452;-47
2021/12/10 04:13:47;;;;;;;6.80;1.70;;;2.60;99.90;;;;;;5053520;28;20179;-48
2021/12/10 04:16:13;;;;;;;3.50;1.30;;;2.60;99.90;;;;;;5035678;28;20187;-47
2021/12/10 04:18:39;;;;;;;8.47;1.63;;;2.60;99.90;;;;;;5053468;28;20604;-47
2021/12/10 04:21:07;;;;;;;3.30;1.13;;;2.60;99.90;;;;;;5053851;28;20728;-47
2021/12/10 04:23:35;;;;;;;6.73;1.13;;;2.50;99.90;;;;;;5053412;28;20408;-47
2021/12/10 04:26:02;;;;;;;9.23;1.77;;;2.50;99.90;;;;;;5053352;28;20417;-47
2021/12/10 04:28:27;;;;;;;5.13;2.17;;;2.50;99.90;;;;;;5053477;28;20551;-47
2021/12/10 04:30:54;;;;;;;8.27;2.03;;;2.50;99.90;;;;;;5053177;28;20450;-47
2021/12/10 04:33:23;;;;;;;3.07;1.00;;;2.60;99.90;;;;;;5053241;28;20256;-46
2021/12/10 04:35:51;;;;;;;5.33;1.10;;;2.60;99.90;;;;;;5053123;28;20418;-45
2021/12/10 04:38:18;;;;;;;2.33;1.30;;;2.50;99.90;;;;;;5053383;28;20778;-46
2021/12/10 04:40:47;;;;;;;3.60;1.20;;;2.50;99.90;;;;;;5053289;28;20471;-46
2021/12/10 04:43:14;;;;;;;8.37;1.50;;;2.60;99.90;;;;;;5053001;28;20545;-46
2021/12/10 04:45:40;;;;;;;7.80;1.63;;;2.60;99.90;;;;;;5052599;28;20256;-48
2021/12/10 04:48:06;;;;;;;9.87;1.43;;;2.60;99.90;;;;;;5052967;28;20446;-47
2021/12/10 04:50:32;;;;;;;2.67;0.80;;;2.60;99.90;;;;;;5053255;28;20189;-45
2021/12/10 04:52:58;;;;;;;10.97;2.00;;;2.60;99.90;;;;;;5053245;28;20205;-46
2021/12/10 04:55:24;;;;;;;5.33;1.53;;;2.60;99.90;;;;;;5053071;28;20177;-47
2021/12/10 04:57:50;;;;;;;4.97;1.23;;;2.50;99.90;;;;;;5053203;28;20842;-47
2021/12/10 05:00:22;;;;;;;5.80;1.10;;;2.60;99.90;;;;;;5053100;28;20300;-48
2021/12/10 05:02:48;;;;;;;10.07;1.63;;;2.50;99.90;;;;;;5053101;28;20524;-46
2021/12/10 05:05:13;;;;;;;8.83;1.20;;;2.60;99.90;;;;;;5052851;28;20467;-46
2021/12/10 05:07:40;;;;;;;7.50;1.40;;;2.50;99.90;;;;;;5053090;28;20413;-47
2021/12/10 05:10:09;;;;;;;6.40;1.73;;;2.50;99.90;;;;;;5052835;28;20186;-47
2021/12/10 05:12:35;;;;;;;4.83;1.40;;;2.50;99.90;;;;;;5052741;28;20448;-46
2021/12/10 05:15:02;;;;;;;3.70;1.30;;;2.50;99.90;;;;;;5052712;28;20419;-45
2021/12/10 05:17:31;;;;;;;4.07;1.23;;;2.50;99.90;;;;;;5052663;28;20178;-48
2021/12/10 05:20:00;;;;;;;5.30;1.70;;;2.50;99.90;;;;;;5034662;28;20888;-46
2021/12/10 05:22:26;;;;;;;3.43;0.80;;;2.60;99.90;;;;;;5052714;28;20477;-45
2021/12/10 05:24:53;;;;;;;5.60;1.10;;;2.50;99.90;;;;;;5052734;28;20896;-48
2021/12/10 05:27:18;;;;;;;5.20;1.40;;;2.60;99.90;;;;;;5052762;28;20174;-45
2021/12/10 05:29:44;;;;;;;4.80;1.40;;;2.60;99.90;;;;;;5052780;28;20778;-45
2021/12/10 05:32:11;;;;;;;3.57;1.23;;;2.60;99.90;;;;;;5052657;28;20209;-45
2021/12/10 05:34:40;;;;;;;6.00;1.80;;;2.60;99.90;;;;;;5052692;28;20178;-47
2021/12/10 05:37:07;;;;;;;8.00;1.50;;;2.70;99.90;;;;;;5053211;28;20183;-49
2021/12/10 05:39:32;;;;;;;2.13;1.40;;;2.70;99.90;;;;;;5052385;28;20882;-48
2021/12/10 05:42:00;;;;;;;5.37;1.37;;;2.70;99.90;;;;;;5052473;28;20535;-46
2021/12/10 05:44:27;;;;;;;1.17;0.93;;;2.70;99.90;;;;;;5052752;28;20232;-48
2021/12/10 05:46:53;;;;;;;2.97;1.10;;;2.70;99.90;;;;;;5052566;28;20908;-47
2021/12/10 05:49:19;;;;;;;8.10;1.80;;;2.70;99.90;;;;;;5052552;28;20470;-46
2021/12/10 05:51:44;;;;;;;6.33;1.83;;;2.70;99.90;;;;;;5052672;28;20213;-47
2021/12/10 05:54:10;;;;;;;8.00;1.60;;;2.70;99.90;;;;;;5052511;28;20547;-47
2021/12/10 05:56:36;;;;;;;8.20;1.67;;;2.70;99.90;;;;;;5052540;28;20599;-48
2021/12/10 05:59:04;;;;;;;9.23;1.80;;;2.70;99.90;;;;;;5054919;28;20199;-48
2021/12/10 06:01:30;;;;;;;7.80;3.00;;;2.60;99.90;;;;;;5055948;28;20444;-48
2021/12/10 06:03:55;;;;;;;2.23;1.20;;;2.60;99.90;;;;;;5056328;28;20420;-48
2021/12/10 06:06:27;;;;;;;3.57;1.40;;;2.60;99.90;;;;;;5056382;28;20219;-47
2021/12/10 06:08:55;;;;;;;10.97;2.47;;;2.70;99.90;;;;;;5056257;28;20269;-48
2021/12/10 06:11:22;;;;;;;12.17;2.00;;;2.60;99.90;;;;;;5056006;28;20452;-48
2021/12/10 06:13:48;;;;;;;8.00;2.30;;;2.70;99.90;;;;;;5056089;28;20512;-49
2021/12/10 06:16:14;;;;;;;9.30;2.10;;;2.80;99.90;;;;;;5055742;28;20474;-47
2021/12/10 06:18:41;;;;;;;5.87;1.60;;;2.70;99.90;;;;;;5055500;28;20417;-48
2021/12/10 06:21:07;;;;;;;4.97;1.70;;;2.70;99.90;;;;;;5055937;28;20433;-48
2021/12/10 06:23:32;;;;;;;4.17;1.60;;;2.70;99.90;;;;;;5055633;28;20442;-47
2021/12/10 06:25:58;;;;;;;7.53;2.00;;;2.70;99.90;;;;;;5055552;28;20178;-48
2021/12/10 06:28:24;;;;;;;6.90;2.07;;;2.60;99.90;;;;;;5056011;28;20556;-47
2021/12/10 06:30:51;;;;;;;6.47;2.03;;;2.60;99.90;;;;;;5055413;28;20546;-47
2021/12/10 06:33:21;;;;;;;4.87;1.97;;;2.60;99.90;;;;;;5055705;28;20528;-46
2021/12/10 06:35:50;;;;;;;8.93;1.77;;;2.60;99.90;;;;;;5055604;28;20424;-47
2021/12/10 06:38:17;;;;;;;4.00;1.70;;;2.60;99.90;;;;;;5055248;28;20569;-47
2021/12/10 06:40:44;;;;;;;10.13;2.23;;;2.60;99.90;;;;;;5055194;28;20456;-48
2021/12/10 06:43:12;;;;;;;1.77;1.27;;;2.70;99.90;;;;;;5055877;28;20198;-48
2021/12/10 06:45:38;;;;;;;6.40;2.97;;;2.70;99.90;;;;;;5055433;28;20512;-47
2021/12/10 06:48:06;;;;;;;8.00;2.73;;;2.70;99.90;;;;;;5055238;28;20486;-44
2021/12/10 06:50:40;;;;;;;10.40;2.10;;;2.70;99.90;;;;;;5055235;28;20455;-42
2021/12/10 06:53:05;;;;;;;8.10;2.13;;;2.70;99.90;;;;;;5055031;28;20448;-44
2021/12/10 06:55:32;;;;;;;10.13;3.03;;;2.70;99.90;;;;;;5055223;28;20424;-43
2021/12/10 06:57:58;;;;;;;5.33;2.67;;;2.70;99.90;;;;;;5055145;28;20501;-41
2021/12/10 07:00:41;;;;;;;6.37;2.80;;;2.70;99.90;;;;;;5054902;28;20204;-41
2021/12/10 07:03:09;;;;;;;8.60;3.77;;;2.70;99.90;;;;;;5054883;28;20279;-41
2021/12/10 07:05:34;;;;;;;9.17;3.37;;;2.80;99.90;;;;;;5054881;28;20191;-41
2021/12/10 07:08:00;;;;;;;2.30;1.43;;;2.80;99.90;;;;;;5054861;28;20185;-44
2021/12/10 07:10:26;;;;;;;7.60;2.87;;;2.80;99.90;;;;;;5054645;28;20194;-43
2021/12/10 07:12:52;;;;;;;9.43;3.17;;;2.80;99.90;;;;;;5054675;28;20209;-42
2021/12/10 07:15:17;;;;;;;9.37;3.53;;;2.80;99.90;;;;;;5054949;28;20191;-42
2021/12/10 07:17:47;;;;;;;7.23;2.27;;;2.80;99.90;;;;;;5054818;28;20427;-43
2021/12/10 07:20:15;;;;;;;7.13;2.83;;;2.80;99.90;;;;;;5054361;28;20217;-43
2021/12/10 07:22:41;;;;;;;4.17;2.00;;;2.80;99.90;;;;;;5054782;28;20265;-41
2021/12/10 07:25:08;;;;;;;10.07;2.73;;;2.90;99.90;;;;;;5036529;28;20429;-42
2021/12/10 07:27:34;;;;;;;2.97;1.30;;;2.90;99.90;;;;;;5054699;28;20263;-42
2021/12/10 07:29:59;;;;;;;18.93;5.60;;;2.90;99.90;;;;;;5054342;28;20430;-43
2021/12/10 07:32:25;;;;;;;7.20;2.93;;;2.90;99.90;;;;;;5054263;28;20202;-42
2021/12/10 07:34:51;;;;;;;9.67;3.87;;;2.90;99.90;;;;;;5054173;28;20194;-41
2021/12/10 07:37:17;;;;;;;4.80;2.53;;;2.90;99.90;;;;;;5054743;28;20180;-42
2021/12/10 07:39:42;;;;;;;5.80;2.27;;;3.00;99.90;;;;;;5054347;28;20339;-42
2021/12/10 07:42:09;;;;;;;3.70;2.00;;;3.00;99.90;;;;;;5054550;28;20689;-42
2021/12/10 07:44:36;;;;;;;5.23;2.03;;;3.00;99.90;;;;;;5054022;28;20184;-42
2021/12/10 07:47:09;;;;;;;3.20;2.00;;;3.00;99.90;;;;;;5054030;28;20184;-44
2021/12/10 07:49:37;;;;;;;4.60;1.70;;;3.00;99.90;;;;;;5054770;28;20173;-43
2021/12/10 07:52:14;;;;;;;4.97;1.87;;;3.00;99.90;;;;;;5054150;28;20589;-42
2021/12/10 07:54:41;;;;;;;6.03;2.13;;;3.00;99.90;;;;;;5054152;28;20495;-41
2021/12/10 07:57:07;;;;;;;2.00;1.70;;;3.10;99.90;;;;;;5035940;28;20188;-43
2021/12/10 07:59:34;;;;;;;9.20;2.67;;;3.00;99.90;;;;;;5053752;28;20470;-44
2021/12/10 08:02:01;;;;;;;10.70;2.70;;;3.10;99.90;;;;;;5053668;28;20199;-42
2021/12/10 08:04:27;;;;;;;7.90;2.40;;;3.10;99.90;;;;;;5053687;28;20174;-44
2021/12/10 08:06:53;;;;;;;2.83;1.50;;;3.10;99.90;;;;;;5053972;28;20190;-45
2021/12/10 08:09:18;;;;;;;7.43;2.47;;;3.10;99.90;;;;;;5053654;28;20233;-43
2021/12/10 08:11:45;;;;;;;5.00;1.80;;;3.10;99.90;;;;;;5053538;28;20204;-44
2021/12/10 08:14:10;;;;;;;9.30;2.50;;;3.10;99.90;;;;;;5053724;28;20191;-42
2021/12/10 08:16:37;;;;;;;7.30;1.93;;;3.10;99.90;;;;;;5053631;28;20619;-41
2021/12/10 08:19:03;;;;;;;13.37;2.67;;;3.10;99.90;;;;;;5053172;28;20225;-43
2021/12/10 08:21:29;;;;;;;6.07;1.97;;;3.10;99.90;;;;;;5052783;28;20202;-41
2021/12/10 08:23:55;;;;;;;7.17;1.90;;;3.20;99.90;;;;;;5053515;28;20237;-43
2021/12/10 08:26:22;;;;;;;6.07;1.97;;;3.20;99.90;;;;;;5053339;28;20544;-44
2021/12/10 08:28:47;;;;;;;5.40;2.03;;;3.20;99.90;;;;;;5053339;28;20172;-41
2021/12/10 08:31:15;;;;;;;2.47;1.63;;;3.20;99.90;;;;;;5053190;28;20440;-43
2021/12/10 08:33:42;;;;;;;7.17;1.97;;;3.30;99.90;;;;;;5053197;28;20178;-41
2021/12/10 08:36:09;;;;;;;9.87;1.80;;;3.30;99.90;;;;;;5053478;28;20415;-43
2021/12/10 08:38:37;;;;;;;6.00;2.30;;;3.30;99.90;;;;;;5053324;28;20261;-43
2021/12/10 08:41:13;;;;;;;5.70;1.27;;;3.30;99.90;;;;;;5053107;28;20539;-42
2021/12/10 08:43:40;;;;;;;2.87;1.47;;;3.40;99.90;;;;;;5053631;28;20385;-44
2021/12/10 08:46:07;;;;;;;7.50;1.80;;;3.40;99.90;;;;;;5053147;28;20414;-41
2021/12/10 08:48:34;;;;;;;3.93;1.17;;;3.40;99.90;;;;;;5053075;28;20414;-43
2021/12/10 08:51:04;;;;;;;9.07;2.20;;;3.40;99.90;;;;;;5053478;28;20422;-42
2021/12/10 08:53:30;;;;;;;7.90;1.97;;;3.40;99.90;;;;;;5053117;28;20177;-41
2021/12/10 08:55:57;;;;;;;4.00;1.70;;;3.40;99.90;;;;;;5052930;28;20274;-44
2021/12/10 08:58:23;;;;;;;4.03;1.33;;;3.40;99.90;;;;;;5052930;28;20191;-42
2021/12/10 09:01:04;;;;;;;5.07;1.43;;;3.40;99.90;;;;;;5052907;28;20659;-42
2021/12/10 09:03:29;;;;;;;10.40;2.07;;;3.50;99.90;;;;;;5053235;28;20157;-42
2021/12/10 09:05:55;;;;;;;5.77;2.30;;;3.50;99.90;;;;;;5052862;28;20597;-43
2021/12/10 09:08:21;;;;;;;3.07;1.67;;;3.50;99.90;;;;;;5035005;28;20665;-42
2021/12/10 09:10:47;;;;;;;1.43;1.20;;;3.50;99.90;;;;;;5053255;28;20195;-42
2021/12/10 09:13:15;;;;;;;5.20;2.43;;;3.50;99.90;;;;;;5034964;28;20242;-41
2021/12/10 09:15:46;;;;;;;12.93;2.10;;;3.60;99.90;;;;;;5052835;28;20183;-42
2021/12/10 09:18:12;;;;;;;3.80;1.60;;;3.60;99.90;;;;;;5053272;28;20233;-42
2021/12/10 09:20:42;;;;;;;5.00;1.13;;;3.60;99.90;;;;;;5052632;28;20215;-42
2021/12/10 09:23:11;;;;;;;3.60;1.30;;;3.60;99.90;;;;;;5052766;28;20205;-42
2021/12/10 09:25:38;;;;;;;7.80;1.43;;;3.60;99.90;;;;;;5052858;28;20175;-41
2021/12/10 09:28:04;;;;;;;4.13;1.43;;;3.60;99.90;;;;;;5034891;28;20195;-43
2021/12/10 09:30:31;;;;;;;7.53;1.90;;;3.70;99.90;;;;;;5053002;28;20241;-41
2021/12/10 09:32:57;;;;;;;4.50;1.97;;;3.70;99.90;;;;;;5055180;28;20198;-41
2021/12/10 09:35:26;;;;;;;4.40;1.57;;;3.70;99.90;;;;;;5056505;28;20194;-42
2021/12/10 09:37:52;;;;;;;6.73;1.73;;;3.70;99.90;;;;;;5039123;28;20184;-44
2021/12/10 09:40:23;;;;;;;8.00;1.87;;;3.70;99.90;;;;;;5056582;28;20247;-44
2021/12/10 09:42:49;;;;;;;5.47;1.87;;;3.70;99.90;;;;;;5056345;28;20498;-42
2021/12/10 09:45:19;;;;;;;2.80;1.53;;;3.70;99.90;;;;;;5056310;28;20259;-42
2021/12/10 09:47:45;;;;;;;6.57;2.27;;;3.80;99.90;;;;;;5056592;28;20178;-42
2021/12/10 09:50:14;;;;;;;2.00;1.27;;;3.80;99.90;;;;;;5056177;28;20191;-44
2021/12/10 09:52:41;;;;;;;4.33;1.73;;;3.80;99.90;;;;;;5056085;28;20200;-44
2021/12/10 09:55:12;;;;;;;1.20;0.73;;;3.80;99.90;;;;;;5056222;28;20183;-44
2021/12/10 09:57:38;;;;;;;4.40;1.20;;;3.80;99.90;;;;;;5056095;28;20172;-44
2021/12/10 10:00:15;;;;;;;5.93;1.67;;;3.80;99.90;;;;;;5056322;28;20214;-43
2021/12/10 10:02:41;;;;;;;2.03;1.00;;;3.80;99.90;;;;;;5056308;28;20604;-43
2021/12/10 10:05:09;;;;;;;4.83;1.43;;;3.80;99.90;;;;;;5055927;28;20180;-43
2021/12/10 10:07:36;;;;;;;5.33;2.03;;;3.80;99.90;;;;;;5055949;28;20184;-42
2021/12/10 10:10:13;;;;;;;9.47;2.30;;;3.90;99.90;;;;;;5056088;28;20575;-43
2021/12/10 10:12:44;;;;;;;3.17;1.57;;;3.90;99.90;;;;;;5055949;28;20195;-42
2021/12/10 10:15:16;;;;;;;6.40;1.73;;;3.90;99.90;;;;;;5056031;28;20626;-42
2021/12/10 10:17:42;;;;;;;12.27;2.83;;;3.90;99.90;;;;;;5055998;28;20204;-44
2021/12/10 10:20:11;;;;;;;6.83;2.27;;;3.90;99.90;;;;;;5055544;28;20261;-44
2021/12/10 10:22:37;;;;;;;3.27;1.83;;;3.90;99.90;;;;;;5055523;28;20241;-43
2021/12/10 10:25:07;;;;;;;3.50;2.07;;;4.00;99.90;;;;;;5037745;28;20184;-43
2021/12/10 10:27:35;;;;;;;6.27;2.73;;;4.00;99.90;;;;;;5055805;28;20168;-42
2021/12/10 10:30:25;;;;;;;4.53;1.93;;;4.00;99.90;;;;;;5055508;28;20184;-41
2021/12/10 10:32:51;;;;;;;7.20;2.23;;;4.00;99.90;;;;;;5055477;28;20204;-43
2021/12/10 10:35:23;;;;;;;5.67;2.43;;;4.00;99.90;;;;;;5055327;28;20179;-41
2021/12/10 10:37:50;;;;;;;4.60;1.90;;;4.10;99.90;;;;;;5055958;28;20218;-43
2021/12/10 10:40:21;;;;;;;6.57;2.37;;;4.10;99.90;;;;;;5055195;28;20234;-42
2021/12/10 10:42:48;;;;;;;2.90;2.10;;;4.10;99.90;;;;;;5055248;28;20199;-42
2021/12/10 10:45:20;;;;;;;9.53;2.60;;;4.10;99.90;;;;;;5054379;28;20275;-43
2021/12/10 10:47:48;;;;;;;3.53;2.13;;;4.10;99.90;;;;;;5055395;28;20174;-42
2021/12/10 10:50:16;;;;;;;1.20;0.93;;;4.10;99.90;;;;;;5055616;28;20234;-39
2021/12/10 10:52:46;;;;;;;2.37;1.67;;;4.10;99.90;;;;;;5037120;28;20215;-42
2021/12/10 10:55:12;;;;;;;4.80;1.43;;;4.10;99.90;;;;;;5055038;28;20176;-43
2021/12/10 10:57:47;;;;;;;7.33;1.90;;;4.10;99.90;;;;;;5055185;28;20582;-44
2021/12/10 11:00:34;;;;;;;4.83;1.73;;;4.10;99.90;;;;;;5055021;28;20282;-44
2021/12/10 11:03:13;;;;;;;1.73;1.10;;;4.00;99.90;;;;;;5054874;28;20237;-43
2021/12/10 11:05:57;;;;;;;13.23;3.90;;;4.00;99.90;;;;;;5054805;28;20232;-44
2021/12/10 11:08:38;;;;;;;4.50;2.57;;;4.00;99.90;;;;;;5036887;28;20230;-43
2021/12/10 11:11:21;;;;;;;3.70;1.63;;;4.00;99.90;;;;;;5054632;28;20691;-43
2021/12/10 11:14:06;;;;;;;6.83;1.90;;;3.90;99.90;;;;;;5054987;28;20163;-43
2021/12/10 11:16:35;;;;;;;11.77;2.07;;;3.90;99.90;;;;;;5054949;28;20184;-42
2021/12/10 11:19:12;;;;;;;3.47;1.07;;;3.90;99.90;;;;;;5054744;28;20220;-43
2021/12/10 11:21:37;;;;;;;4.00;1.30;;;3.80;99.90;;;;;;5054683;28;20207;-44
2021/12/10 11:24:16;;;;;;;4.87;2.27;;;3.80;99.90;;;;;;5054519;28;20259;-42
2021/12/10 11:26:48;;;;;;;3.23;2.13;;;3.80;99.90;;;;;;5054426;28;20781;-43
2021/12/10 11:29:37;;;;;;;5.30;2.47;;;3.80;99.90;;;;;;5036652;28;20176;-43
2021/12/10 11:32:12;;;;;;;6.50;1.80;;;3.70;99.90;;;;;;5054567;28;20227;-42
2021/12/10 11:34:54;;;;;;;4.87;1.93;;;3.70;99.90;;;;;;5054674;28;20653;-43
2021/12/10 11:37:59;;;;;;;4.60;2.07;;;3.70;99.90;;;;;;5054514;28;20171;-42
2021/12/10 11:41:03;;;;;;;5.37;2.57;;;3.70;99.90;;;;;;5054400;28;20227;-44
2021/12/10 11:43:44;;;;;;;10.47;2.70;;;3.70;99.90;;;;;;5043258;28;20213;-42
2021/12/10 11:49:26;;;;;;;8.37;2.43;;;3.60;99.90;;;;;;4973589;28;20185;-44
2021/12/10 11:52:06;;;;;;;5.30;2.07;;;3.60;99.90;;;;;;4973562;28;20207;-42
2021/12/10 11:54:50;;;;;;;8.30;3.40;;;3.60;99.90;;;;;;5025694;28;20681;-43
2021/12/10 11:57:22;;;;;;;7.77;2.57;;;3.60;99.90;;;;;;5054454;28;20171;-41
2021/12/10 12:00:10;;;;;;;6.37;2.93;;;3.60;99.90;;;;;;5054065;28;20291;-42
2021/12/10 12:02:48;;;;;;;6.37;2.90;;;3.60;99.90;;;;;;5054052;28;20191;-41
2021/12/10 12:05:17;;;;;;;10.30;2.53;;;3.60;99.90;;;;;;5054117;28;20176;-42
2021/12/10 12:07:54;;;;;;;5.10;2.80;;;3.60;99.90;;;;;;5053696;28;20184;-44
2021/12/10 12:10:37;;;;;;;6.73;2.37;;;3.60;99.90;;;;;;5053736;28;20544;-43
2021/12/10 12:13:24;;;;;;;5.63;2.50;;;3.60;99.90;;;;;;5053693;28;20204;-43
2021/12/10 12:15:57;;;;;;;7.67;2.70;;;3.60;99.90;;;;;;5053879;28;20180;-41
2021/12/10 12:18:32;;;;;;;4.77;2.33;;;3.60;99.90;;;;;;5054033;28;20180;-42
2021/12/10 12:20:58;;;;;;;5.13;2.37;;;3.50;99.90;;;;;;5053803;28;20653;-42
2021/12/10 12:26:24;;;;;;;4.37;1.90;;;3.60;99.90;;;;;;5053904;28;20210;-44
2021/12/10 12:28:54;;;;;;;6.37;2.63;;;3.60;99.90;;;;;;5053428;28;20177;-41
2021/12/10 12:31:26;;;;;;;7.37;2.97;;;3.60;99.90;;;;;;5053354;28;20669;-44
2021/12/10 12:33:57;;;;;;;8.40;2.80;;;3.60;99.90;;;;;;5053959;28;20176;-43
2021/12/10 12:36:42;;;;;;;9.80;2.27;;;3.70;99.90;;;;;;5054081;28;20244;-48
2021/12/10 12:39:24;;;;;;;5.43;2.20;;;3.70;99.90;;;;;;5054274;28;20196;-48
2021/12/10 12:41:51;;;;;;;2.77;1.50;;;3.70;99.90;;;;;;5053909;28;20204;-47
2021/12/10 12:44:21;;;;;;;5.63;1.70;;;3.70;99.90;;;;;;5053801;28;20180;-48
2021/12/10 12:46:59;;;;;;;4.37;2.30;;;3.70;99.90;;;;;;5055016;28;20592;-42
2021/12/10 12:49:25;;;;;;;4.03;1.77;;;3.80;99.90;;;;;;5053524;28;20164;-41
2021/12/10 12:52:10;;;;;;;7.77;1.90;;;3.80;99.90;;;;;;5053297;28;20576;-41
2021/12/10 12:54:41;;;;;;;2.20;1.50;;;3.80;99.90;;;;;;5053285;28;20241;-40
2021/12/10 12:57:11;;;;;;;7.07;1.90;;;3.80;99.90;;;;;;5053380;28;20622;-42
2021/12/10 12:59:37;;;;;;;2.97;1.70;;;3.80;99.90;;;;;;5035146;28;20200;-42
2021/12/10 13:02:08;;;;;;;5.30;2.20;;;3.80;99.90;;;;;;5053172;28;20204;-41
2021/12/10 13:04:40;;;;;;;4.93;2.10;;;3.80;99.90;;;;;;5053019;28;20171;-43
2021/12/10 13:07:19;;;;;;;4.53;2.30;;;3.80;99.90;;;;;;5054546;28;20164;-42
2021/12/10 13:09:53;;;;;;;2.97;1.97;;;3.80;99.90;;;;;;5057421;28;20560;-43
2021/12/10 13:12:35;;;;;;;4.10;2.23;;;3.80;99.90;;;;;;5057312;28;20292;-42
2021/12/10 13:15:08;;;;;;;10.67;2.13;;;3.80;99.90;;;;;;5039274;28;20532;-42
2021/12/10 13:17:41;;;;;;;3.67;2.00;;;3.80;99.90;;;;;;5057156;28;20210;-41
2021/12/10 13:20:13;;;;;;;4.10;1.70;;;3.80;99.90;;;;;;5039174;28;20241;-40
2021/12/10 13:22:41;;;;;;;7.27;1.90;;;3.80;99.90;;;;;;5056752;28;20702;-42